createdAt,value
2017-04-24T00:00:17.852Z,1009.42
2017-04-24T00:01:17.868Z,1009.45
2017-04-24T00:02:17.882Z,1009.45
2017-04-24T00:03:17.898Z,1009.45
2017-04-24T00:04:17.913Z,1009.47
2017-04-24T00:05:17.928Z,1009.43
2017-04-24T00:06:17.942Z,1009.43
2017-04-24T00:07:17.959Z,1009.43
2017-04-24T00:08:17.972Z,1009.42
2017-04-24T00:09:17.987Z,1009.4
2017-04-24T00:10:18.001Z,1009.41
2017-04-24T00:11:18.015Z,1009.37
2017-04-24T00:12:18.034Z,1009.38
2017-04-24T00:13:18.048Z,1009.4
2017-04-24T00:14:18.063Z,1009.35
2017-04-24T00:15:18.077Z,1009.36
2017-04-24T00:16:18.092Z,1009.34
2017-04-24T00:17:18.107Z,1009.35
2017-04-24T00:18:18.121Z,1009.32
2017-04-24T00:19:18.135Z,1009.28
2017-04-24T00:20:18.151Z,1009.3
2017-04-24T00:21:18.166Z,1009.27
2017-04-24T00:22:18.180Z,1009.27
2017-04-24T00:23:18.195Z,1009.3
2017-04-24T00:24:18.212Z,1009.25
2017-04-24T00:25:18.225Z,1009.27
2017-04-24T00:26:18.242Z,1009.27
2017-04-24T00:27:18.258Z,1009.24
2017-04-24T00:28:18.270Z,1009.18
2017-04-24T00:29:18.284Z,1009.2
2017-04-24T00:30:18.297Z,1009.16
2017-04-24T00:31:18.320Z,1009.17
2017-04-24T00:32:18.328Z,1009.14
2017-04-24T00:33:18.342Z,1009.13
2017-04-24T00:34:18.357Z,1009.16
2017-04-24T00:35:18.372Z,1009.2
2017-04-24T00:36:18.387Z,1009.2
2017-04-24T00:37:18.400Z,1009.19
2017-04-24T00:38:18.416Z,1009.19
2017-04-24T00:39:18.430Z,1009.19
2017-04-24T00:40:18.445Z,1009.17
2017-04-24T00:41:18.460Z,1009.22
2017-04-24T00:42:18.476Z,1009.21
2017-04-24T00:43:18.490Z,1009.18
2017-04-24T00:44:18.504Z,1009.18
2017-04-24T00:45:18.519Z,1009.18
2017-04-24T00:46:18.535Z,1009.15
2017-04-24T00:47:18.549Z,1009.14
2017-04-24T00:48:18.564Z,1009.15
2017-04-24T00:49:18.578Z,1009.12
2017-04-24T00:50:18.592Z,1009.1
2017-04-24T00:51:18.608Z,1009.11
2017-04-24T00:52:18.622Z,1009.09
2017-04-24T00:53:18.636Z,1009.08
2017-04-24T00:54:18.652Z,1009.03
2017-04-24T00:55:18.666Z,1009.01
2017-04-24T00:56:18.684Z,1009.01
2017-04-24T00:57:18.696Z,1009.03
2017-04-24T00:58:18.710Z,1009.01
2017-04-24T00:59:18.725Z,1009
2017-04-24T01:00:18.743Z,1008.96
2017-04-24T01:01:18.753Z,1009
2017-04-24T01:02:18.767Z,1008.98
2017-04-24T01:03:18.783Z,1008.95
2017-04-24T01:04:18.806Z,1008.95
2017-04-24T01:05:18.813Z,1008.92
2017-04-24T01:06:18.826Z,1008.95
2017-04-24T01:07:18.840Z,1008.94
2017-04-24T01:08:18.855Z,1008.94
2017-04-24T01:09:18.870Z,1008.9
2017-04-24T01:10:18.883Z,1008.91
2017-04-24T01:11:18.898Z,1008.91
2017-04-24T01:12:18.912Z,1008.9
2017-04-24T01:13:18.929Z,1008.91
2017-04-24T01:14:18.942Z,1008.89
2017-04-24T01:15:18.957Z,1008.89
2017-04-24T01:16:18.971Z,1008.93
2017-04-24T01:17:18.989Z,1008.92
2017-04-24T01:18:19.000Z,1008.93
2017-04-24T01:19:19.016Z,1008.92
2017-04-24T01:20:19.030Z,1008.92
2017-04-24T01:21:19.043Z,1008.91
2017-04-24T01:22:19.058Z,1008.91
2017-04-24T01:23:19.070Z,1008.88
2017-04-24T01:24:19.086Z,1008.91
2017-04-24T01:25:19.102Z,1008.88
2017-04-24T01:26:19.118Z,1008.85
2017-04-24T01:27:19.128Z,1008.86
2017-04-24T01:28:19.144Z,1008.92
2017-04-24T01:29:19.159Z,1008.88
2017-04-24T01:30:19.172Z,1008.88
2017-04-24T01:31:19.189Z,1008.85
2017-04-24T01:32:19.201Z,1008.87
2017-04-24T01:33:19.217Z,1008.88
2017-04-24T01:34:19.229Z,1008.84
2017-04-24T01:35:19.246Z,1008.83
2017-04-24T01:36:19.261Z,1008.82
2017-04-24T01:37:19.273Z,1008.81
2017-04-24T01:38:19.289Z,1008.8
2017-04-24T01:39:19.301Z,1008.8
2017-04-24T01:40:19.317Z,1008.83
2017-04-24T01:41:19.331Z,1008.84
2017-04-24T01:42:19.346Z,1008.83
2017-04-24T01:43:19.358Z,1008.82
2017-04-24T01:44:19.373Z,1008.79
2017-04-24T01:45:19.387Z,1008.76
2017-04-24T01:46:19.400Z,1008.8
2017-04-24T01:47:19.415Z,1008.75
2017-04-24T01:48:19.430Z,1008.74
2017-04-24T01:49:19.444Z,1008.73
2017-04-24T01:50:19.457Z,1008.68
2017-04-24T01:51:19.472Z,1008.66
2017-04-24T01:52:19.486Z,1008.66
2017-04-24T01:53:19.501Z,1008.67
2017-04-24T01:54:19.515Z,1008.61
2017-04-24T01:55:19.531Z,1008.63
2017-04-24T01:56:19.543Z,1008.59
2017-04-24T01:57:19.556Z,1008.61
2017-04-24T01:58:19.576Z,1008.58
2017-04-24T01:59:19.588Z,1008.59
2017-04-24T02:00:19.599Z,1008.57
2017-04-24T02:01:19.613Z,1008.56
2017-04-24T02:02:19.628Z,1008.53
2017-04-24T02:03:19.642Z,1008.55
2017-04-24T02:04:19.659Z,1008.55
2017-04-24T02:05:19.669Z,1008.54
2017-04-24T02:06:19.688Z,1008.49
2017-04-24T02:07:19.698Z,1008.49
2017-04-24T02:08:19.713Z,1008.48
2017-04-24T02:09:19.727Z,1008.51
2017-04-24T02:10:19.743Z,1008.5
2017-04-24T02:11:19.755Z,1008.5
2017-04-24T02:12:19.769Z,1008.47
2017-04-24T02:13:19.781Z,1008.47
2017-04-24T02:14:19.797Z,1008.51
2017-04-24T02:15:19.811Z,1008.48
2017-04-24T02:16:19.826Z,1008.43
2017-04-24T02:17:19.840Z,1008.48
2017-04-24T02:18:19.853Z,1008.42
2017-04-24T02:19:19.868Z,1008.42
2017-04-24T02:20:19.880Z,1008.42
2017-04-24T02:21:19.896Z,1008.41
2017-04-24T02:22:19.910Z,1008.41
2017-04-24T02:23:19.924Z,1008.43
2017-04-24T02:24:19.938Z,1008.42
2017-04-24T02:25:19.951Z,1008.39
2017-04-24T02:26:19.964Z,1008.42
2017-04-24T02:27:19.980Z,1008.39
2017-04-24T02:28:19.992Z,1008.38
2017-04-24T02:29:20.008Z,1008.42
2017-04-24T02:30:20.023Z,1008.37
2017-04-24T02:31:20.035Z,1008.4
2017-04-24T02:32:20.049Z,1008.39
2017-04-24T02:33:20.066Z,1008.4
2017-04-24T02:34:20.077Z,1008.4
2017-04-24T02:35:20.091Z,1008.45
2017-04-24T02:36:20.106Z,1008.42
2017-04-24T02:37:20.120Z,1008.39
2017-04-24T02:38:20.133Z,1008.41
2017-04-24T02:39:20.147Z,1008.4
2017-04-24T02:40:20.161Z,1008.38
2017-04-24T02:41:20.174Z,1008.39
2017-04-24T02:42:20.190Z,1008.38
2017-04-24T02:43:20.205Z,1008.33
2017-04-24T02:44:20.218Z,1008.34
2017-04-24T02:45:20.230Z,1008.25
2017-04-24T02:46:20.244Z,1008.35
2017-04-24T02:47:20.259Z,1008.3
2017-04-24T02:48:20.271Z,1008.3
2017-04-24T02:49:20.286Z,1008.3
2017-04-24T02:50:20.301Z,1008.28
2017-04-24T02:51:20.313Z,1008.28
2017-04-24T02:52:20.327Z,1008.26
2017-04-24T02:53:20.341Z,1008.24
2017-04-24T02:54:20.357Z,1008.25
2017-04-24T02:55:20.368Z,1008.25
2017-04-24T02:56:20.382Z,1008.28
2017-04-24T02:57:20.395Z,1008.23
2017-04-24T02:58:20.411Z,1008.22
2017-04-24T02:59:20.424Z,1008.22
2017-04-24T03:00:20.438Z,1008.2
2017-04-24T03:01:20.452Z,1008.17
2017-04-24T03:02:20.466Z,1008.18
2017-04-24T03:03:20.477Z,1008.14
2017-04-24T03:04:20.492Z,1008.13
2017-04-24T03:05:20.506Z,1008.09
2017-04-24T03:06:20.520Z,1008.07
2017-04-24T03:07:20.532Z,1008.1
2017-04-24T03:08:20.552Z,1008.04
2017-04-24T03:09:20.561Z,1008.04
2017-04-24T03:10:20.572Z,1008.07
2017-04-24T03:11:20.589Z,1008.01
2017-04-24T03:12:20.601Z,1008.03
2017-04-24T03:13:20.618Z,1008.02
2017-04-24T03:14:20.631Z,1008.04
2017-04-24T03:15:20.646Z,1008.02
2017-04-24T03:16:20.657Z,1007.99
2017-04-24T03:17:20.670Z,1008.01
2017-04-24T03:18:20.684Z,1007.98
2017-04-24T03:19:20.700Z,1007.99
2017-04-24T03:20:20.711Z,1007.98
2017-04-24T03:21:20.724Z,1007.9
2017-04-24T03:22:20.738Z,1007.92
2017-04-24T03:23:20.752Z,1007.87
2017-04-24T03:24:20.767Z,1007.87
2017-04-24T03:25:20.779Z,1007.88
2017-04-24T03:26:20.792Z,1007.89
2017-04-24T03:27:20.807Z,1007.85
2017-04-24T03:28:20.821Z,1007.84
2017-04-24T03:29:20.834Z,1007.82
2017-04-24T03:30:20.847Z,1007.79
2017-04-24T03:31:20.862Z,1007.8
2017-04-24T03:32:20.874Z,1007.75
2017-04-24T03:33:20.888Z,1007.72
2017-04-24T03:34:20.902Z,1007.75
2017-04-24T03:35:20.915Z,1007.7
2017-04-24T03:36:20.928Z,1007.7
2017-04-24T03:37:20.941Z,1007.69
2017-04-24T03:38:20.955Z,1007.69
2017-04-24T03:39:20.970Z,1007.68
2017-04-24T03:40:20.982Z,1007.67
2017-04-24T03:41:20.997Z,1007.69
2017-04-24T03:42:21.010Z,1007.68
2017-04-24T03:43:21.023Z,1007.7
2017-04-24T03:44:21.041Z,1007.69
2017-04-24T03:45:21.050Z,1007.66
2017-04-24T03:46:21.065Z,1007.66
2017-04-24T03:47:21.078Z,1007.62
2017-04-24T03:48:21.091Z,1007.6
2017-04-24T03:49:21.104Z,1007.62
2017-04-24T03:50:21.117Z,1007.62
2017-04-24T03:51:21.131Z,1007.6
2017-04-24T03:52:21.146Z,1007.6
2017-04-24T03:53:21.158Z,1007.6
2017-04-24T03:54:21.172Z,1007.57
2017-04-24T03:55:21.186Z,1007.61
2017-04-24T03:56:21.200Z,1007.56
2017-04-24T03:57:21.212Z,1007.55
2017-04-24T03:58:21.226Z,1007.57
2017-04-24T03:59:21.239Z,1007.51
2017-04-24T04:00:21.252Z,1007.52
2017-04-24T04:01:21.266Z,1007.48
2017-04-24T04:02:21.280Z,1007.5
2017-04-24T04:03:21.293Z,1007.5
2017-04-24T04:04:21.306Z,1007.43
2017-04-24T04:05:21.319Z,1007.45
2017-04-24T04:06:21.333Z,1007.44
2017-04-24T04:07:21.347Z,1007.45
2017-04-24T04:08:21.361Z,1007.43
2017-04-24T04:09:21.375Z,1007.44
2017-04-24T04:10:21.387Z,1007.47
2017-04-24T04:11:21.407Z,1007.47
2017-04-24T04:12:21.413Z,1007.49
2017-04-24T04:13:21.427Z,1007.5
2017-04-24T04:14:21.439Z,1007.47
2017-04-24T04:15:21.453Z,1007.5
2017-04-24T04:16:21.466Z,1007.45
2017-04-24T04:17:21.480Z,1007.43
2017-04-24T04:18:21.495Z,1007.44
2017-04-24T04:19:21.507Z,1007.46
2017-04-24T04:20:21.519Z,1007.48
2017-04-24T04:21:21.533Z,1007.47
2017-04-24T04:22:21.547Z,1007.48
2017-04-24T04:23:21.559Z,1007.5
2017-04-24T04:24:21.575Z,1007.44
2017-04-24T04:25:21.586Z,1007.43
2017-04-24T04:26:21.599Z,1007.43
2017-04-24T04:27:21.612Z,1007.46
2017-04-24T04:28:21.628Z,1007.43
2017-04-24T04:29:21.640Z,1007.46
2017-04-24T04:30:21.654Z,1007.44
2017-04-24T04:31:21.665Z,1007.42
2017-04-24T04:32:21.678Z,1007.43
2017-04-24T04:33:21.692Z,1007.41
2017-04-24T04:34:21.705Z,1007.4
2017-04-24T04:35:21.718Z,1007.41
2017-04-24T04:36:21.732Z,1007.39
2017-04-24T04:37:21.747Z,1007.35
2017-04-24T04:38:21.759Z,1007.4
2017-04-24T04:39:21.773Z,1007.4
2017-04-24T04:40:21.785Z,1007.38
2017-04-24T04:41:21.801Z,1007.36
2017-04-24T04:42:21.811Z,1007.39
2017-04-24T04:43:21.825Z,1007.38
2017-04-24T04:44:21.838Z,1007.41
2017-04-24T04:45:21.851Z,1007.4
2017-04-24T04:46:21.866Z,1007.38
2017-04-24T04:47:21.878Z,1007.37
2017-04-24T04:48:21.892Z,1007.33
2017-04-24T04:49:21.904Z,1007.33
2017-04-24T04:50:21.918Z,1007.34
2017-04-24T04:51:21.930Z,1007.34
2017-04-24T04:52:21.944Z,1007.33
2017-04-24T04:53:21.959Z,1007.3
2017-04-24T04:54:21.971Z,1007.29
2017-04-24T04:55:21.984Z,1007.27
2017-04-24T04:56:21.998Z,1007.29
2017-04-24T04:57:22.010Z,1007.26
2017-04-24T04:58:22.027Z,1007.29
2017-04-24T04:59:22.037Z,1007.3
2017-04-24T05:00:22.054Z,1007.29
2017-04-24T05:01:22.062Z,1007.26
2017-04-24T05:02:22.077Z,1007.25
2017-04-24T05:03:22.091Z,1007.23
2017-04-24T05:04:22.103Z,1007.22
2017-04-24T05:05:22.116Z,1007.21
2017-04-24T05:06:22.129Z,1007.21
2017-04-24T05:07:22.143Z,1007.23
2017-04-24T05:08:22.157Z,1007.18
2017-04-24T05:09:22.172Z,1007.17
2017-04-24T05:10:22.182Z,1007.13
2017-04-24T05:11:22.197Z,1007.15
2017-04-24T05:12:22.209Z,1007.15
2017-04-24T05:13:22.224Z,1007.14
2017-04-24T05:14:22.238Z,1007.12
2017-04-24T05:15:22.249Z,1007.14
2017-04-24T05:16:22.261Z,1007.12
2017-04-24T05:17:22.276Z,1007.12
2017-04-24T05:18:22.288Z,1007.16
2017-04-24T05:19:22.301Z,1007.14
2017-04-24T05:20:22.314Z,1007.09
2017-04-24T05:21:22.329Z,1007.06
2017-04-24T05:22:22.340Z,1007.03
2017-04-24T05:23:22.355Z,1007.06
2017-04-24T05:24:22.367Z,1007.05
2017-04-24T05:25:22.383Z,1007.03
2017-04-24T05:26:22.426Z,1007.01
2017-04-24T05:27:22.408Z,1007.04
2017-04-24T05:28:22.421Z,1007.03
2017-04-24T05:29:22.434Z,1007.04
2017-04-24T05:30:22.448Z,1007.03
2017-04-24T05:31:22.461Z,1007.04
2017-04-24T05:32:22.473Z,1007.07
2017-04-24T05:33:22.487Z,1007.06
2017-04-24T05:34:22.520Z,1007.08
2017-04-24T05:35:22.513Z,1007.06
2017-04-24T05:36:22.530Z,1007.03
2017-04-24T05:37:22.539Z,1007.04
2017-04-24T05:38:22.552Z,1007.08
2017-04-24T05:39:22.568Z,1007.09
2017-04-24T05:40:22.579Z,1007.09
2017-04-24T05:41:22.592Z,1007.04
2017-04-24T05:42:22.606Z,1007.07
2017-04-24T05:43:22.619Z,1007.07
2017-04-24T05:44:22.632Z,1007.05
2017-04-24T05:45:22.644Z,1007.06
2017-04-24T05:46:22.659Z,1007.04
2017-04-24T05:47:22.672Z,1007.05
2017-04-24T05:48:22.697Z,1007.04
2017-04-24T05:49:22.701Z,1007.08
2017-04-24T05:50:22.712Z,1007.06
2017-04-24T05:51:22.749Z,1007.06
2017-04-24T05:52:22.760Z,1007.04
2017-04-24T05:53:22.751Z,1007.06
2017-04-24T05:54:22.764Z,1007.03
2017-04-24T05:55:22.776Z,1007.03
2017-04-24T05:56:22.793Z,1007.01
2017-04-24T05:57:22.804Z,1007.01
2017-04-24T05:58:22.817Z,1007.04
2017-04-24T05:59:22.833Z,1007.01
2017-04-24T06:00:22.843Z,1006.99
2017-04-24T06:01:22.856Z,1007.02
2017-04-24T06:02:22.868Z,1007.05
2017-04-24T06:03:22.882Z,1007.01
2017-04-24T06:04:22.897Z,1006.96
2017-04-24T06:05:22.911Z,1006.96
2017-04-24T06:06:22.924Z,1006.93
2017-04-24T06:07:22.933Z,1006.94
2017-04-24T06:08:22.948Z,1006.92
2017-04-24T06:09:22.960Z,1006.95
2017-04-24T06:10:22.973Z,1006.96
2017-04-24T06:11:22.988Z,1006.94
2017-04-24T06:12:23.001Z,1006.91
2017-04-24T06:13:23.012Z,1006.92
2017-04-24T06:14:23.027Z,1006.87
2017-04-24T06:15:23.067Z,1006.86
2017-04-24T06:16:23.055Z,1006.86
2017-04-24T06:17:23.066Z,1006.84
2017-04-24T06:18:23.080Z,1006.87
2017-04-24T06:19:23.094Z,1006.83
2017-04-24T06:20:23.105Z,1006.85
2017-04-24T06:21:23.119Z,1006.83
2017-04-24T06:22:23.132Z,1006.85
2017-04-24T06:23:23.148Z,1006.81
2017-04-24T06:24:23.160Z,1006.78
2017-04-24T06:25:23.172Z,1006.82
2017-04-24T06:26:23.187Z,1006.79
2017-04-24T06:27:23.201Z,1006.84
2017-04-24T06:28:23.213Z,1006.8
2017-04-24T06:29:23.226Z,1006.84
2017-04-24T06:30:23.239Z,1006.82
2017-04-24T06:31:23.251Z,1006.77
2017-04-24T06:32:23.266Z,1006.83
2017-04-24T06:33:23.279Z,1006.8
2017-04-24T06:34:23.292Z,1006.78
2017-04-24T06:35:23.304Z,1006.78
2017-04-24T06:36:23.320Z,1006.78
2017-04-24T06:37:23.404Z,1006.76
2017-04-24T06:38:23.345Z,1006.77
2017-04-24T06:39:23.358Z,1006.78
2017-04-24T06:40:23.373Z,1006.74
2017-04-24T06:41:23.385Z,1006.73
2017-04-24T06:42:23.398Z,1006.72
2017-04-24T06:43:23.413Z,1006.75
2017-04-24T06:44:23.427Z,1006.74
2017-04-24T06:45:23.439Z,1006.71
2017-04-24T06:46:23.456Z,1006.67
2017-04-24T06:47:23.466Z,1006.63
2017-04-24T06:48:23.479Z,1006.59
2017-04-24T06:49:23.494Z,1006.63
2017-04-24T06:50:23.507Z,1006.6
2017-04-24T06:51:23.521Z,1006.59
2017-04-24T06:52:23.535Z,1006.58
2017-04-24T06:53:23.547Z,1006.6
2017-04-24T06:54:23.562Z,1006.54
2017-04-24T06:55:23.575Z,1006.48
2017-04-24T06:56:23.589Z,1006.46
2017-04-24T06:57:23.600Z,1006.46
2017-04-24T06:58:23.629Z,1006.45
2017-04-24T06:59:23.636Z,1006.41
2017-04-24T07:00:23.775Z,1006.4
2017-04-24T07:01:23.660Z,1006.4
2017-04-24T07:02:23.672Z,1006.42
2017-04-24T07:03:23.689Z,1006.37
2017-04-24T07:04:23.698Z,1006.36
2017-04-24T07:05:23.713Z,1006.41
2017-04-24T07:06:23.726Z,1006.36
2017-04-24T07:07:23.741Z,1006.35
2017-04-24T07:08:23.753Z,1006.37
2017-04-24T07:09:23.767Z,1006.3
2017-04-24T07:10:23.782Z,1006.34
2017-04-24T07:11:23.799Z,1006.34
2017-04-24T07:12:23.808Z,1006.34
2017-04-24T07:13:23.823Z,1006.31
2017-04-24T07:14:23.844Z,1006.35
2017-04-24T07:15:23.851Z,1006.31
2017-04-24T07:16:23.865Z,1006.31
2017-04-24T07:17:23.879Z,1006.3
2017-04-24T07:18:23.893Z,1006.32
2017-04-24T07:19:23.908Z,1006.23
2017-04-24T07:20:23.920Z,1006.25
2017-04-24T07:21:23.934Z,1006.2
2017-04-24T07:22:23.949Z,1006.19
2017-04-24T07:23:23.965Z,1006.19
2017-04-24T07:24:23.978Z,1006.22
2017-04-24T07:25:23.996Z,1006.2
2017-04-24T07:26:24.005Z,1006.17
2017-04-24T07:27:24.020Z,1006.18
2017-04-24T07:28:24.035Z,1006.13
2017-04-24T07:29:24.050Z,1006.1
2017-04-24T07:30:24.062Z,1006.15
2017-04-24T07:31:24.077Z,1006.12
2017-04-24T07:32:24.092Z,1006.1
2017-04-24T07:33:24.106Z,1006.09
2017-04-24T07:34:24.121Z,1006.07
2017-04-24T07:35:24.135Z,1006.09
2017-04-24T07:36:24.150Z,1006.07
2017-04-24T07:37:24.163Z,1006.01
2017-04-24T07:38:24.179Z,1005.97
2017-04-24T07:39:24.193Z,1006
2017-04-24T07:40:24.209Z,1005.93
2017-04-24T07:41:24.221Z,1005.91
2017-04-24T07:42:24.235Z,1005.89
2017-04-24T07:43:24.250Z,1005.94
2017-04-24T07:44:24.265Z,1005.93
2017-04-24T07:45:24.279Z,1005.89
2017-04-24T07:46:24.295Z,1005.86
2017-04-24T07:47:24.309Z,1005.85
2017-04-24T07:48:24.324Z,1005.85
2017-04-24T07:49:24.338Z,1005.81
2017-04-24T07:50:24.353Z,1005.81
2017-04-24T07:51:24.369Z,1005.78
2017-04-24T07:52:24.382Z,1005.79
2017-04-24T07:53:24.397Z,1005.75
2017-04-24T07:54:24.411Z,1005.76
2017-04-24T07:55:24.426Z,1005.79
2017-04-24T07:56:24.442Z,1005.75
2017-04-24T07:57:24.459Z,1005.75
2017-04-24T07:58:24.480Z,1005.74
2017-04-24T07:59:24.487Z,1005.76
2017-04-24T08:00:24.500Z,1005.74
2017-04-24T08:01:24.517Z,1005.71
2017-04-24T08:02:24.532Z,1005.67
2017-04-24T08:03:24.546Z,1005.67
2017-04-24T08:04:24.561Z,1005.68
2017-04-24T08:05:24.576Z,1005.66
2017-04-24T08:06:24.591Z,1005.67
2017-04-24T08:07:24.605Z,1005.67
2017-04-24T08:08:24.622Z,1005.67
2017-04-24T08:09:24.638Z,1005.57
2017-04-24T08:10:24.650Z,1005.56
2017-04-24T08:11:24.667Z,1005.54
2017-04-24T08:12:24.682Z,1005.52
2017-04-24T08:13:24.698Z,1005.53
2017-04-24T08:14:24.712Z,1005.54
2017-04-24T08:15:24.730Z,1005.51
2017-04-24T08:16:24.743Z,1005.48
2017-04-24T08:17:24.759Z,1005.48
2017-04-24T08:18:24.774Z,1005.44
2017-04-24T08:19:24.790Z,1005.39
2017-04-24T08:20:24.809Z,1005.39
2017-04-24T08:21:24.820Z,1005.41
2017-04-24T08:22:24.835Z,1005.41
2017-04-24T08:23:24.852Z,1005.43
2017-04-24T08:24:24.868Z,1005.37
2017-04-24T08:25:24.882Z,1005.39
2017-04-24T08:26:24.898Z,1005.41
2017-04-24T08:27:24.913Z,1005.39
2017-04-24T08:28:24.930Z,1005.42
2017-04-24T08:29:24.945Z,1005.41
2017-04-24T08:30:24.959Z,1005.38
2017-04-24T08:31:24.977Z,1005.38
2017-04-24T08:32:24.994Z,1005.35
2017-04-24T08:33:25.013Z,1005.37
2017-04-24T08:34:25.025Z,1005.36
2017-04-24T08:35:25.040Z,1005.37
2017-04-24T08:36:25.059Z,1005.3
2017-04-24T08:37:25.072Z,1005.32
2017-04-24T08:38:25.089Z,1005.34
2017-04-24T08:39:25.104Z,1005.46
2017-04-24T08:40:25.121Z,1005.37
2017-04-24T08:41:25.135Z,1005.35
2017-04-24T08:42:25.153Z,1005.33
2017-04-24T08:43:25.167Z,1005.3
2017-04-24T08:44:25.184Z,1005.32
2017-04-24T08:45:25.222Z,1005.31
2017-04-24T08:46:25.216Z,1005.34
2017-04-24T08:47:25.233Z,1005.31
2017-04-24T08:48:25.250Z,1005.36
2017-04-24T08:49:25.265Z,1005.27
2017-04-24T08:50:25.281Z,1005.24
2017-04-24T08:51:25.297Z,1005.25
2017-04-24T08:52:25.315Z,1005.25
2017-04-24T08:53:25.330Z,1005.23
2017-04-24T08:54:25.345Z,1005.22
2017-04-24T08:55:25.361Z,1005.19
2017-04-24T08:56:25.379Z,1005.2
2017-04-24T08:57:25.394Z,1005.15
2017-04-24T08:58:25.410Z,1005.18
2017-04-24T08:59:25.427Z,1005.13
2017-04-24T09:00:25.444Z,1005.12
2017-04-24T09:01:25.460Z,1005.09
2017-04-24T09:02:25.476Z,1005.13
2017-04-24T09:03:25.493Z,1005.04
2017-04-24T09:04:25.510Z,1005.02
2017-04-24T09:05:25.525Z,1005.05
2017-04-24T09:06:25.543Z,1005.14
2017-04-24T09:07:25.560Z,1005.09
2017-04-24T09:08:25.575Z,1005.09
2017-04-24T09:09:25.592Z,1005.06
2017-04-24T09:10:25.608Z,1005.07
2017-04-24T09:11:25.628Z,1005.04
2017-04-24T09:12:25.642Z,1005
2017-04-24T09:13:25.658Z,1004.9
2017-04-24T09:14:25.676Z,1005.03
2017-04-24T09:15:25.692Z,1005.02
2017-04-24T09:16:25.710Z,1004.94
2017-04-24T09:17:25.726Z,1004.94
2017-04-24T09:18:25.742Z,1004.92
2017-04-24T09:19:25.759Z,1004.93
2017-04-24T09:20:25.776Z,1004.94
2017-04-24T09:21:25.792Z,1004.95
2017-04-24T09:22:25.810Z,1004.86
2017-04-24T09:23:25.825Z,1004.78
2017-04-24T09:24:25.844Z,1004.79
2017-04-24T09:25:25.861Z,1004.77
2017-04-24T09:26:25.880Z,1004.78
2017-04-24T09:27:25.896Z,1004.74
2017-04-24T09:28:25.912Z,1004.69
2017-04-24T09:29:25.930Z,1004.71
2017-04-24T09:30:25.945Z,1004.67
2017-04-24T09:31:25.962Z,1004.66
2017-04-24T09:32:25.981Z,1004.72
2017-04-24T09:33:25.999Z,1004.76
2017-04-24T09:34:26.015Z,1004.7
2017-04-24T09:35:26.032Z,1004.66
2017-04-24T09:36:26.050Z,1004.63
2017-04-24T09:37:26.070Z,1004.63
2017-04-24T09:38:26.192Z,1004.56
2017-04-24T09:39:26.190Z,1004.58
2017-04-24T09:40:26.237Z,1004.52
2017-04-24T09:41:26.234Z,1004.52
2017-04-24T09:42:26.243Z,1004.45
2017-04-24T09:43:26.226Z,1004.52
2017-04-24T09:44:26.264Z,1004.5
2017-04-24T09:45:26.267Z,1004.47
2017-04-24T09:46:26.272Z,1004.43
2017-04-24T09:47:26.245Z,1004.42
2017-04-24T09:48:26.261Z,1004.45
2017-04-24T09:49:26.349Z,1004.46
2017-04-24T09:50:26.360Z,1004.39
2017-04-24T09:51:26.497Z,1004.42
2017-04-24T09:52:26.375Z,1004.37
2017-04-24T09:53:26.386Z,1004.4
2017-04-24T09:54:26.385Z,1004.24
2017-04-24T09:55:26.393Z,1004.33
2017-04-24T09:56:26.540Z,1004.31
2017-04-24T09:57:26.510Z,1004.28
2017-04-24T09:58:26.519Z,1004.26
2017-04-24T09:59:26.535Z,1004.25
2017-04-24T10:00:26.498Z,1004.16
2017-04-24T10:01:26.543Z,1004.16
2017-04-24T10:02:26.513Z,1004.18
2017-04-24T10:03:26.526Z,1004.18
2017-04-24T10:04:26.546Z,1004.15
2017-04-24T10:05:26.564Z,1004.16
2017-04-24T10:06:26.583Z,1004.14
2017-04-24T10:07:26.600Z,1004.11
2017-04-24T10:08:26.620Z,1004.11
2017-04-24T10:09:26.638Z,1004.19
2017-04-24T10:10:26.656Z,1004.15
2017-04-24T10:11:26.675Z,1004.17
2017-04-24T10:12:26.692Z,1004.09
2017-04-24T10:13:26.713Z,1004.07
2017-04-24T10:14:26.730Z,1004.06
2017-04-24T10:15:26.749Z,1004
2017-04-24T10:16:26.769Z,1003.95
2017-04-24T10:17:26.786Z,1004.04
2017-04-24T10:18:26.807Z,1004
2017-04-24T10:19:26.823Z,1003.95
2017-04-24T10:20:26.842Z,1003.91
2017-04-24T10:21:26.860Z,1003.86
2017-04-24T10:22:26.880Z,1003.92
2017-04-24T10:23:26.912Z,1003.86
2017-04-24T10:24:26.917Z,1003.8
2017-04-24T10:25:26.936Z,1003.89
2017-04-24T10:26:26.954Z,1003.81
2017-04-24T10:27:26.974Z,1003.76
2017-04-24T10:28:27.018Z,1003.73
2017-04-24T10:29:27.013Z,1003.7
2017-04-24T10:30:27.031Z,1003.79
2017-04-24T10:31:27.049Z,1003.77
2017-04-24T10:32:27.067Z,1003.66
2017-04-24T10:33:27.087Z,1003.75
2017-04-24T10:34:27.109Z,1003.71
2017-04-24T10:35:27.126Z,1003.66
2017-04-24T10:36:27.144Z,1003.65
2017-04-24T10:37:27.165Z,1003.64
2017-04-24T10:38:27.184Z,1003.55
2017-04-24T10:39:27.204Z,1003.53
2017-04-24T10:40:27.222Z,1003.53
2017-04-24T10:41:27.241Z,1003.5
2017-04-24T10:42:27.262Z,1003.43
2017-04-24T10:43:27.280Z,1003.5
2017-04-24T10:44:27.299Z,1003.43
2017-04-24T10:45:27.319Z,1003.44
2017-04-24T10:46:27.337Z,1003.41
2017-04-24T10:47:27.430Z,1003.42
2017-04-24T10:48:27.439Z,1003.39
2017-04-24T10:49:27.407Z,1003.35
2017-04-24T10:50:27.418Z,1003.34
2017-04-24T10:51:27.488Z,1003.29
2017-04-24T10:52:27.551Z,1003.23
2017-04-24T10:53:27.533Z,1003.27
2017-04-24T10:54:27.497Z,1003.24
2017-04-24T10:55:27.515Z,1003.25
2017-04-24T10:56:27.535Z,1003.18
2017-04-24T10:57:27.555Z,1003.16
2017-04-24T10:58:27.574Z,1003.17
2017-04-24T10:59:27.598Z,1003.09
2017-04-24T11:00:27.615Z,1003.1
2017-04-24T11:01:27.636Z,1003.14
2017-04-24T11:02:27.655Z,1003.05
2017-04-24T11:03:27.675Z,1003.07
2017-04-24T11:04:27.695Z,1003.06
2017-04-24T11:05:27.716Z,1002.92
2017-04-24T11:06:27.737Z,1003.08
2017-04-24T11:07:27.755Z,1003.04
2017-04-24T11:08:27.778Z,1003.02
2017-04-24T11:09:27.797Z,1003.02
2017-04-24T11:10:27.816Z,1002.98
2017-04-24T11:11:27.838Z,1002.98
2017-04-24T11:12:27.857Z,1002.91
2017-04-24T11:13:27.876Z,1002.86
2017-04-24T11:14:27.900Z,1002.98
2017-04-24T11:15:27.919Z,1002.94
2017-04-24T11:16:27.938Z,1002.93
2017-04-24T11:17:27.959Z,1002.95
2017-04-24T11:18:27.981Z,1002.9
2017-04-24T11:19:28.001Z,1002.88
2017-04-24T11:20:28.020Z,1002.87
2017-04-24T11:21:28.041Z,1002.78
2017-04-24T11:22:28.064Z,1002.71
2017-04-24T11:23:28.083Z,1002.75
2017-04-24T11:24:28.105Z,1002.68
2017-04-24T11:25:28.124Z,1002.6
2017-04-24T11:26:28.148Z,1002.72
2017-04-24T11:27:28.166Z,1002.77
2017-04-24T11:28:28.188Z,1002.66
2017-04-24T11:29:28.209Z,1002.6
2017-04-24T11:30:28.232Z,1002.59
2017-04-24T11:31:28.251Z,1002.52
2017-04-24T11:32:28.272Z,1002.52
2017-04-24T11:33:28.293Z,1002.46
2017-04-24T11:34:28.316Z,1002.39
2017-04-24T11:35:28.335Z,1002.4
2017-04-24T11:36:28.357Z,1002.39
2017-04-24T11:37:28.379Z,1002.41
2017-04-24T11:38:28.399Z,1002.4
2017-04-24T11:39:28.422Z,1002.36
2017-04-24T11:40:28.441Z,1002.37
2017-04-24T11:41:28.462Z,1002.44
2017-04-24T11:42:28.483Z,1002.38
2017-04-24T11:43:28.505Z,1002.3
2017-04-24T11:44:28.528Z,1002.29
2017-04-24T11:45:28.551Z,1002.3
2017-04-24T11:46:28.571Z,1002.27
2017-04-24T11:47:28.592Z,1002.3
2017-04-24T11:48:28.614Z,1002.25
2017-04-24T11:49:28.635Z,1002.18
2017-04-24T11:50:28.658Z,1002.22
2017-04-24T11:51:28.680Z,1002.26
2017-04-24T11:52:28.700Z,1002.16
2017-04-24T11:53:28.721Z,1002.16
2017-04-24T11:54:28.743Z,1002.19
2017-04-24T11:55:28.765Z,1002.24
2017-04-24T11:56:28.785Z,1002.18
2017-04-24T11:57:28.809Z,1002.12
2017-04-24T11:58:28.831Z,1002.14
2017-04-24T11:59:28.852Z,1002.13
2017-04-24T12:00:28.875Z,1002.18
2017-04-24T12:01:28.895Z,1002.16
2017-04-24T12:02:28.918Z,1002.17
2017-04-24T12:03:28.939Z,1002.18
2017-04-24T12:04:28.962Z,1002.13
2017-04-24T12:05:28.983Z,1002.05
2017-04-24T12:06:29.006Z,1002.12
2017-04-24T12:07:29.028Z,1002.06
2017-04-24T12:08:29.050Z,1002.1